Time;durP1;ratioP1;P1;durP2;ratioP2;P2;SDS_P1;SDS_P2;PMS_P1;PMS_P2;Temp;Humidity;BMP_temperature;BMP_pressure;BME280_temperature;BME280_humidity;BME280_pressure;Samples;Min_cycle;Max_cycle;Signal;HPM_P1;HPM_P2
2023/04/12 00:01:16;;;;;;;1999.90;999.90;;;25.40;94.20;;;;;;5032103;28;20030;-72
2023/04/12 00:03:49;;;;;;;1999.90;999.90;;;25.30;94.30;;;;;;5040463;28;20124;-69
2023/04/12 00:06:31;;;;;;;1999.90;999.90;;;25.20;94.40;;;;;;5030987;28;20037;-69
2023/04/12 00:09:03;;;;;;;1999.90;999.90;;;25.20;94.20;;;;;;5028263;28;20501;-72
2023/04/12 00:11:31;;;;;;;1999.90;999.90;;;24.90;94.40;;;;;;5024104;28;20029;-70
2023/04/12 00:13:59;;;;;;;1999.90;999.90;;;24.50;94.80;;;;;;5038251;28;20025;-69
2023/04/12 00:16:26;;;;;;;1999.90;999.90;;;24.20;95.30;;;;;;5028007;28;20045;-71
2023/04/12 00:18:54;;;;;;;1999.90;999.90;;;23.90;95.50;;;;;;5020373;28;20582;-69
2023/04/12 00:21:22;;;;;;;1999.90;999.90;;;23.70;95.90;;;;;;5017671;28;20562;-70
2023/04/12 00:23:49;;;;;;;1999.90;999.90;;;23.60;95.90;;;;;;5020483;28;20095;-71
2023/04/12 00:26:17;;;;;;;1999.90;999.90;;;23.40;96.60;;;;;;5017527;28;20064;-69
2023/04/12 00:28:45;;;;;;;1999.90;999.90;;;23.30;96.80;;;;;;5034368;28;20025;-69
2023/04/12 00:31:12;;;;;;;1999.90;999.90;;;23.30;96.90;;;;;;5026592;28;20037;-72
2023/04/12 00:33:42;;;;;;;1999.90;999.90;;;23.30;96.70;;;;;;5035925;28;20818;-70
2023/04/12 00:36:10;;;;;;;1999.90;999.90;;;23.40;96.60;;;;;;5032247;28;20021;-71
2023/04/12 00:38:37;;;;;;;1999.90;999.90;;;23.30;96.80;;;;;;5028279;28;20499;-69
2023/04/12 00:41:05;;;;;;;1999.90;999.90;;;23.30;97.10;;;;;;5033393;28;20029;-69
2023/04/12 00:43:32;;;;;;;1999.90;999.90;;;23.40;97.30;;;;;;5027774;28;20029;-70
2023/04/12 00:46:01;;;;;;;1999.90;999.90;;;23.60;97.20;;;;;;5034478;28;20025;-69
2023/04/12 00:48:28;;;;;;;1999.90;999.90;;;24.30;97.20;;;;;;5036140;28;20099;-69
2023/04/12 00:50:56;;;;;;;1999.90;999.90;;;25.60;95.50;;;;;;5038752;28;20022;-71
2023/04/12 00:53:24;;;;;;;1999.90;999.90;;;27.00;93.80;;;;;;5031748;28;20025;-70
2023/04/12 00:55:51;;;;;;;1999.90;999.90;;;28.20;92.80;;;;;;5026865;28;20103;-71
2023/04/12 00:58:21;;;;;;;1999.90;999.90;;;29.10;91.20;;;;;;5033952;28;20044;-71
2023/04/12 01:00:51;;;;;;;1999.90;999.90;;;28.70;90.30;;;;;;5035830;28;20056;-71
2023/04/12 01:03:23;;;;;;;1999.90;999.90;;;27.90;90.60;;;;;;5036660;28;20025;-69
2023/04/12 01:06:28;;;;;;;1999.90;999.90;;;26.80;91.30;;;;;;5025897;28;20248;-68
2023/04/12 01:09:47;;;;;;;1999.90;999.90;;;25.90;92.10;;;;;;5035705;28;20116;-69
2023/04/12 01:12:35;;;;;;;1999.90;999.90;;;25.20;93.20;;;;;;4988097;28;20528;-69
2023/04/12 01:15:07;;;;;;;1999.90;999.90;;;25.50;93.60;;;;;;5032329;28;20057;-68
2023/04/12 01:17:47;;;;;;;1999.90;999.90;;;25.60;94.30;;;;;;5030787;28;20030;-69
2023/04/12 01:20:15;;;;;;;1999.90;999.90;;;25.40;93.70;;;;;;5038897;28;20036;-68
2023/04/12 01:22:52;;;;;;;1999.90;999.90;;;25.20;94.50;;;;;;5031503;28;20033;-69
2023/04/12 01:26:11;;;;;;;1999.90;999.90;;;25.00;94.70;;;;;;5031778;28;20443;-68
2023/04/12 01:28:43;;;;;;;1999.90;999.90;;;24.90;95.20;;;;;;4994803;28;20179;-71
2023/04/12 01:31:12;;;;;;;1999.90;999.90;;;24.70;94.50;;;;;;5025616;28;20249;-70
2023/04/12 01:33:42;;;;;;;1999.90;999.90;;;24.30;94.80;;;;;;5025583;28;20017;-69
2023/04/12 01:36:16;;;;;;;1999.90;999.90;;;24.00;95.70;;;;;;5022855;28;20064;-71
2023/04/12 01:38:44;;;;;;;1999.90;999.90;;;23.70;95.50;;;;;;5027864;28;20120;-69
2023/04/12 01:41:12;;;;;;;1999.90;999.90;;;23.40;95.80;;;;;;5031984;28;20487;-69
2023/04/12 01:43:46;;;;;;;1999.90;999.90;;;23.40;96.30;;;;;;5032473;28;20033;-70
2023/04/12 01:46:15;;;;;;;1999.90;999.90;;;23.40;95.90;;;;;;5035526;28;20036;-70
2023/04/12 01:48:49;;;;;;;1999.90;999.90;;;23.50;96.20;;;;;;5032391;28;20095;-72
2023/04/12 01:51:38;;;;;;;1999.90;999.90;;;23.50;95.60;;;;;;5034859;28;20507;-70
2023/04/12 01:54:12;;;;;;;1999.90;999.90;;;23.50;95.00;;;;;;5039117;28;20026;-69
2023/04/12 01:56:46;;;;;;;1999.90;999.90;;;23.30;95.20;;;;;;5026956;28;20030;-68
2023/04/12 01:59:15;;;;;;;1999.90;999.90;;;23.20;95.90;;;;;;5039355;28;20032;-70
2023/04/12 02:01:43;;;;;;;1999.90;999.90;;;23.30;96.10;;;;;;5031054;28;20028;-71
2023/04/12 02:04:12;;;;;;;1999.90;999.90;;;23.60;95.70;;;;;;5028270;28;20033;-69
2023/04/12 02:06:40;;;;;;;1999.90;999.90;;;23.70;91.80;;;;;;5022323;28;20112;-72
2023/04/12 02:09:08;;;;;;;1999.90;999.90;;;24.00;91.90;;;;;;5033370;28;20025;-72
2023/04/12 02:11:35;;;;;;;1999.90;999.90;;;24.40;92.10;;;;;;5030386;28;20392;-73
2023/04/12 02:14:03;;;;;;;1999.90;999.90;;;24.40;91.10;;;;;;5040622;28;20100;-71
2023/04/12 02:16:31;;;;;;;1999.90;999.90;;;24.10;90.40;;;;;;5027535;28;20038;-70
2023/04/12 02:18:58;;;;;;;1999.90;999.90;;;23.50;90.60;;;;;;5025643;28;20025;-70
2023/04/12 02:21:26;;;;;;;1999.90;999.90;;;23.30;91.50;;;;;;5037544;28;20128;-72
2023/04/12 02:23:53;;;;;;;1999.90;999.90;;;23.20;92.00;;;;;;5038320;28;20155;-73
2023/04/12 02:26:22;;;;;;;1999.90;999.90;;;23.30;92.20;;;;;;5028725;28;20048;-71
2023/04/12 02:28:51;;;;;;;1999.90;999.90;;;23.20;90.40;;;;;;5033419;28;20872;-72
2023/04/12 02:31:18;;;;;;;1999.90;999.90;;;23.10;90.90;;;;;;5034935;28;20033;-71
2023/04/12 02:33:46;;;;;;;1999.90;999.90;;;23.00;91.00;;;;;;5032115;28;20044;-72
2023/04/12 02:36:13;;;;;;;1999.90;999.90;;;23.00;90.80;;;;;;5033528;28;20060;-71
2023/04/12 02:38:40;;;;;;;1999.90;999.90;;;23.00;90.70;;;;;;5033365;28;20374;-71
2023/04/12 02:41:07;;;;;;;1999.90;999.90;;;23.00;90.40;;;;;;5025107;28;20049;-72
2023/04/12 02:43:35;;;;;;;1999.90;999.90;;;23.10;90.80;;;;;;5026149;28;20050;-71
2023/04/12 02:46:02;;;;;;;1999.90;999.90;;;23.10;90.40;;;;;;5029272;28;20034;-73
2023/04/12 02:48:29;;;;;;;1999.90;999.90;;;23.10;91.40;;;;;;5027880;28;20049;-72
2023/04/12 02:50:57;;;;;;;1999.90;999.90;;;23.10;91.80;;;;;;5034178;28;20399;-72
2023/04/12 02:53:24;;;;;;;1999.90;999.90;;;23.00;92.20;;;;;;5026372;28;20116;-71
2023/04/12 02:55:51;;;;;;;1999.90;999.90;;;22.90;92.60;;;;;;5029919;28;20029;-70
2023/04/12 02:58:19;;;;;;;1999.90;999.90;;;22.60;92.80;;;;;;5035344;28;20294;-71
2023/04/12 03:00:48;;;;;;;1999.90;999.90;;;22.30;92.40;;;;;;5029652;28;20025;-70
2023/04/12 03:03:16;;;;;;;1999.90;999.90;;;22.00;92.50;;;;;;5029574;28;20033;-70
2023/04/12 03:05:46;;;;;;;1999.90;999.90;;;21.90;92.70;;;;;;5027873;28;20030;-70
2023/04/12 03:08:13;;;;;;;1999.90;999.90;;;21.80;92.70;;;;;;5028896;28;20498;-70
2023/04/12 03:10:41;;;;;;;1999.90;999.90;;;21.70;93.00;;;;;;5031699;28;20391;-72
2023/04/12 03:13:08;;;;;;;1999.90;999.90;;;21.60;92.70;;;;;;5031607;28;20104;-72
2023/04/12 03:15:36;;;;;;;1999.90;999.90;;;21.60;92.60;;;;;;5034301;28;20055;-71
2023/04/12 03:18:03;;;;;;;1999.90;999.90;;;21.60;92.50;;;;;;5029657;28;20065;-70
2023/04/12 03:20:32;;;;;;;1999.90;999.90;;;21.60;92.30;;;;;;5035311;28;20033;-69
2023/04/12 03:23:00;;;;;;;1999.90;999.90;;;21.70;92.40;;;;;;5028314;28;20124;-70
2023/04/12 03:25:27;;;;;;;1999.90;999.90;;;21.70;91.90;;;;;;5038409;28;20028;-70
2023/04/12 03:27:54;;;;;;;1999.90;999.90;;;21.70;92.00;;;;;;5033117;28;20044;-69
2023/04/12 03:30:22;;;;;;;1999.90;999.90;;;21.60;91.70;;;;;;5034996;28;20379;-70
2023/04/12 03:32:49;;;;;;;1999.90;999.90;;;21.60;91.80;;;;;;5029700;28;20025;-70
2023/04/12 03:35:17;;;;;;;1999.90;999.90;;;21.60;91.30;;;;;;5031982;28;20026;-73
2023/04/12 03:37:44;;;;;;;1999.90;999.90;;;21.60;91.60;;;;;;5024685;28;20034;-70
2023/04/12 03:40:12;;;;;;;1999.90;999.90;;;21.70;91.70;;;;;;5037816;28;20052;-71
2023/04/12 03:42:39;;;;;;;1999.90;999.90;;;21.80;91.60;;;;;;5030061;28;20116;-69
2023/04/12 03:45:07;;;;;;;1999.90;999.90;;;22.00;91.40;;;;;;5030043;28;20089;-68
2023/04/12 03:47:35;;;;;;;1999.90;999.90;;;22.00;90.50;;;;;;5029818;28;20053;-68
2023/04/12 03:50:07;;;;;;;1999.90;999.90;;;22.10;91.60;;;;;;5038992;28;20517;-70
2023/04/12 03:52:34;;;;;;;1999.90;999.90;;;22.20;92.00;;;;;;5029922;28;20033;-69
2023/04/12 03:55:02;;;;;;;1999.90;999.90;;;21.90;91.50;;;;;;5035894;28;20018;-69
2023/04/12 03:57:29;;;;;;;1999.90;999.90;;;21.70;92.10;;;;;;5035114;28;20108;-69
2023/04/12 03:59:57;;;;;;;1999.90;999.90;;;21.40;92.50;;;;;;5034550;28;20034;-69
2023/04/12 04:02:25;;;;;;;1999.90;999.90;;;21.30;93.20;;;;;;5026371;28;20033;-69
2023/04/12 04:04:52;;;;;;;1999.90;999.90;;;21.20;93.10;;;;;;5035263;28;20033;-70
2023/04/12 04:07:20;;;;;;;1999.90;999.90;;;21.30;92.70;;;;;;5032452;28;20033;-70
2023/04/12 04:09:48;;;;;;;1999.90;999.90;;;21.30;92.00;;;;;;5031907;28;20033;-71
2023/04/12 04:12:16;;;;;;;1999.90;999.90;;;21.30;92.30;;;;;;5025704;28;20431;-70
2023/04/12 04:14:43;;;;;;;1999.90;999.90;;;21.30;92.30;;;;;;5035623;28;20030;-70
2023/04/12 04:17:10;;;;;;;1999.90;999.90;;;21.30;92.60;;;;;;5024149;28;20713;-70
2023/04/12 04:19:38;;;;;;;1999.90;999.90;;;21.30;92.70;;;;;;5030197;28;20108;-69
2023/04/12 04:22:05;;;;;;;1999.90;999.90;;;21.40;92.30;;;;;;5027295;28;20036;-73
2023/04/12 04:24:33;;;;;;;1999.90;999.90;;;21.40;92.40;;;;;;5034674;28;20029;-71
2023/04/12 04:27:00;;;;;;;1999.90;999.90;;;21.50;92.30;;;;;;5021708;28;20048;-70
2023/04/12 04:29:28;;;;;;;1999.90;999.90;;;21.50;91.90;;;;;;5026520;28;20037;-71
2023/04/12 04:31:56;;;;;;;1999.90;999.90;;;21.80;91.80;;;;;;5029953;28;20036;-72
2023/04/12 04:34:24;;;;;;;1999.90;999.90;;;22.30;91.50;;;;;;5029455;28;20218;-70
2023/04/12 04:36:51;;;;;;;1999.90;999.90;;;22.60;90.70;;;;;;5026073;28;20029;-70
2023/04/12 04:39:19;;;;;;;1999.90;999.90;;;22.80;90.60;;;;;;5025279;28;20171;-71
2023/04/12 04:41:53;;;;;;;1999.90;999.90;;;23.00;90.50;;;;;;5026802;28;20107;-69
2023/04/12 04:44:21;;;;;;;1999.90;999.90;;;23.10;90.30;;;;;;5026561;28;20033;-71
2023/04/12 04:46:48;;;;;;;1999.90;999.90;;;23.30;90.00;;;;;;5023639;28;20037;-69
2023/04/12 04:49:15;;;;;;;1999.90;999.90;;;23.40;89.30;;;;;;5019457;28;20048;-73
2023/04/12 04:51:43;;;;;;;1999.90;999.90;;;23.70;89.80;;;;;;5023964;28;20471;-69
2023/04/12 04:54:10;;;;;;;1999.90;999.90;;;23.70;89.40;;;;;;5025181;28;20021;-72
2023/04/12 04:56:37;;;;;;;1999.90;999.90;;;23.70;88.40;;;;;;5015535;28;20029;-72
2023/04/12 04:59:05;;;;;;;1999.90;999.90;;;23.80;89.50;;;;;;5021662;28;20052;-71
2023/04/12 05:01:35;;;;;;;1999.90;999.90;;;23.90;87.20;;;;;;5024965;28;20029;-69
2023/04/12 05:04:03;;;;;;;1999.90;999.90;;;23.90;87.50;;;;;;5024979;28;20029;-72
2023/04/12 05:06:30;;;;;;;1999.90;999.90;;;23.90;87.20;;;;;;5028452;28;20038;-72
2023/04/12 05:08:57;;;;;;;1999.90;999.90;;;23.80;88.50;;;;;;5034348;28;20055;-73
2023/04/12 05:11:24;;;;;;;1999.90;999.90;;;23.80;88.70;;;;;;5026548;28;20111;-69
2023/04/12 05:13:52;;;;;;;1999.90;999.90;;;23.80;90.00;;;;;;5036214;28;20112;-72
2023/04/12 05:16:19;;;;;;;1999.90;999.90;;;23.70;89.80;;;;;;5029077;28;20032;-72
2023/04/12 05:18:47;;;;;;;1999.90;999.90;;;23.60;90.30;;;;;;5036706;28;20480;-70
2023/04/12 05:21:14;;;;;;;1999.90;999.90;;;23.50;91.30;;;;;;5028794;28;20468;-68
2023/04/12 05:23:46;;;;;;;1999.90;999.90;;;23.40;91.10;;;;;;5038180;28;20033;-69
2023/04/12 05:26:14;;;;;;;1999.90;999.90;;;23.40;91.40;;;;;;5035270;28;20053;-69
2023/04/12 05:28:41;;;;;;;1999.90;999.90;;;23.40;91.40;;;;;;5037177;28;20021;-68
2023/04/12 05:31:08;;;;;;;1999.90;999.90;;;23.50;91.40;;;;;;5025737;28;20060;-69
2023/04/12 05:33:36;;;;;;;1999.90;999.90;;;23.40;91.70;;;;;;5030128;28;20484;-70
2023/04/12 05:36:04;;;;;;;1999.90;999.90;;;23.30;92.20;;;;;;5033656;28;20370;-69
2023/04/12 05:38:31;;;;;;;1999.90;999.90;;;23.30;92.00;;;;;;5029707;28;20045;-68
2023/04/12 05:41:03;;;;;;;1999.90;999.90;;;23.30;92.20;;;;;;5028276;28;20391;-68
2023/04/12 05:43:31;;;;;;;1999.90;999.90;;;23.20;92.50;;;;;;5027584;28;20083;-68
2023/04/12 05:45:59;;;;;;;1999.90;999.90;;;22.90;92.60;;;;;;5029354;28;20134;-69
2023/04/12 05:48:26;;;;;;;1999.90;999.90;;;22.50;92.80;;;;;;5026938;28;20054;-68
2023/04/12 05:50:54;;;;;;;1999.90;999.90;;;22.20;92.90;;;;;;5029975;28;20376;-70
2023/04/12 05:53:22;;;;;;;1999.90;999.90;;;22.10;93.30;;;;;;5025993;28;20025;-71
2023/04/12 05:55:50;;;;;;;1999.90;999.90;;;22.30;93.70;;;;;;5038319;28;20035;-71
2023/04/12 05:58:18;;;;;;;1999.90;999.90;;;22.40;93.30;;;;;;5028810;28;20030;-70
2023/04/12 06:00:45;;;;;;;1999.90;999.90;;;22.60;93.20;;;;;;5034989;28;20030;-70
2023/04/12 06:03:12;;;;;;;1999.90;999.90;;;22.50;93.00;;;;;;5031322;28;20900;-69
2023/04/12 06:05:40;;;;;;;1999.90;999.90;;;22.40;93.20;;;;;;5032637;28;20033;-70
2023/04/12 06:08:09;;;;;;;1999.90;999.90;;;22.40;93.20;;;;;;5033054;28;20037;-71
2023/04/12 06:10:36;;;;;;;1999.90;999.90;;;22.30;93.00;;;;;;5033604;28;20033;-68
2023/04/12 06:13:03;;;;;;;1999.90;999.90;;;22.20;93.00;;;;;;5029345;28;20395;-69
2023/04/12 06:15:32;;;;;;;1999.90;999.90;;;22.10;93.20;;;;;;5038462;28;20030;-69
2023/04/12 06:17:59;;;;;;;1999.90;999.90;;;22.10;93.00;;;;;;5024472;28;20049;-70
2023/04/12 06:20:27;;;;;;;1999.90;999.90;;;22.10;93.30;;;;;;5026538;28;20040;-73
2023/04/12 06:22:54;;;;;;;1999.90;999.90;;;22.10;93.20;;;;;;5024006;28;20492;-71
2023/04/12 06:25:21;;;;;;;1999.90;999.90;;;22.20;93.10;;;;;;5027203;28;20060;-70
2023/04/12 06:27:49;;;;;;;1999.90;999.90;;;22.20;93.30;;;;;;5027865;28;20560;-71
2023/04/12 06:30:16;;;;;;;1999.90;999.90;;;22.20;93.60;;;;;;5035775;28;20103;-70
2023/04/12 06:32:44;;;;;;;1999.90;999.90;;;22.00;93.80;;;;;;5023965;28;20025;-71
2023/04/12 06:35:11;;;;;;;1999.90;999.90;;;21.70;94.20;;;;;;5023354;28;20104;-70
2023/04/12 06:37:38;;;;;;;1999.90;999.90;;;21.40;94.80;;;;;;5023676;28;20043;-70
2023/04/12 06:40:06;;;;;;;1999.90;999.90;;;21.10;95.20;;;;;;5023657;28;20104;-69
2023/04/12 06:42:34;;;;;;;1999.90;999.90;;;20.90;95.60;;;;;;5031174;28;20067;-70
2023/04/12 06:45:01;;;;;;;1999.90;999.90;;;20.80;95.80;;;;;;5024653;28;20119;-70
2023/04/12 06:47:29;;;;;;;1999.90;999.90;;;20.60;95.90;;;;;;5030895;28;20052;-70
2023/04/12 06:49:57;;;;;;;1999.90;999.90;;;20.40;95.80;;;;;;5035577;28;20531;-70
2023/04/12 06:52:25;;;;;;;1999.90;999.90;;;20.30;96.20;;;;;;5027786;28;20093;-70
2023/04/12 06:54:53;;;;;;;1999.90;999.90;;;20.20;96.40;;;;;;5041641;28;20032;-70
2023/04/12 06:57:20;;;;;;;1999.90;999.90;;;20.00;96.70;;;;;;5023903;28;20031;-70
2023/04/12 06:59:48;;;;;;;1999.90;999.90;;;19.90;97.40;;;;;;5031061;28;20373;-70
2023/04/12 07:02:15;;;;;;;1999.90;999.90;;;19.80;97.20;;;;;;5025712;28;20033;-69
2023/04/12 07:04:43;;;;;;;1999.90;999.90;;;19.80;97.50;;;;;;5031909;28;20503;-70
2023/04/12 07:09:13;;;;;;;1999.90;999.90;;;19.80;97.00;;;;;;5057274;27;20434;-72
2023/04/12 07:11:40;;;;;;;1999.90;999.90;;;19.90;97.60;;;;;;5054489;28;20025;-71
2023/04/12 07:14:07;;;;;;;1999.90;999.90;;;19.80;97.70;;;;;;5051416;28;20021;-71
2023/04/12 07:16:35;;;;;;;1999.90;999.90;;;19.80;97.50;;;;;;5056225;28;20060;-70
2023/04/12 07:19:02;;;;;;;1999.90;999.90;;;19.80;97.70;;;;;;5058131;28;20111;-70
2023/04/12 07:21:30;;;;;;;1999.90;999.90;;;19.70;98.00;;;;;;5048406;28;20025;-72
2023/04/12 07:23:57;;;;;;;1999.90;999.90;;;19.60;98.20;;;;;;5052935;28;20135;-70
2023/04/12 07:26:25;;;;;;;1999.90;999.90;;;19.60;98.40;;;;;;5054614;28;20060;-71
2023/04/12 07:28:53;;;;;;;1999.90;999.90;;;19.50;98.10;;;;;;5053001;28;20047;-70
2023/04/12 07:31:21;;;;;;;1999.90;999.90;;;19.40;98.40;;;;;;5065825;28;20067;-69
2023/04/12 07:33:48;;;;;;;1999.90;999.90;;;19.30;98.70;;;;;;5057467;28;20045;-70
2023/04/12 07:36:19;;;;;;;1999.90;999.90;;;19.30;98.90;;;;;;5052251;28;20384;-70
2023/04/12 07:38:48;;;;;;;1999.90;999.90;;;19.20;99.20;;;;;;5063633;28;20029;-70
2023/04/12 07:41:17;;;;;;;1999.90;999.90;;;19.00;99.60;;;;;;5067472;28;20099;-70
2023/04/12 07:43:44;;;;;;;1999.90;999.90;;;19.00;99.80;;;;;;5056694;28;20480;-70
2023/04/12 07:46:11;;;;;;;1999.90;999.90;;;19.00;99.90;;;;;;5061765;28;20033;-69
2023/04/12 07:48:39;;;;;;;1999.90;999.90;;;18.90;99.90;;;;;;5053645;28;20044;-70
2023/04/12 07:51:06;;;;;;;1999.90;999.90;;;18.90;99.90;;;;;;5053657;28;20444;-69
2023/04/12 07:53:34;;;;;;;1999.90;999.90;;;18.90;99.90;;;;;;5061975;28;20035;-69
2023/04/12 07:56:03;;;;;;;1999.90;999.90;;;18.90;99.90;;;;;;5050634;28;20036;-71
2023/04/12 07:58:32;;;;;;;1999.90;999.90;;;18.90;99.90;;;;;;5047707;28;22481;-71
2023/04/12 08:00:59;;;;;;;1999.90;999.90;;;18.90;99.90;;;;;;5047603;28;20072;-72
2023/04/12 08:03:27;;;;;;;1999.90;999.90;;;18.80;99.90;;;;;;5045049;28;20033;-72
2023/04/12 08:05:54;;;;;;;1999.90;999.90;;;18.80;99.90;;;;;;5059807;28;20039;-72
2023/04/12 08:08:22;;;;;;;1999.90;999.90;;;18.70;99.90;;;;;;5055035;28;20059;-69
2023/04/12 08:10:50;;;;;;;1999.90;999.90;;;18.60;99.90;;;;;;5058595;28;20472;-68
2023/04/12 08:13:18;;;;;;;1999.90;999.90;;;18.40;99.90;;;;;;5057771;28;20044;-70
2023/04/12 08:15:48;;;;;;;1999.90;999.90;;;18.40;99.90;;;;;;5054414;28;20035;-69
2023/04/12 08:18:16;;;;;;;1999.90;999.90;;;18.30;99.90;;;;;;5050500;28;20029;-70
2023/04/12 08:20:43;;;;;;;1999.90;999.90;;;18.20;99.90;;;;;;5033888;28;20465;-70
2023/04/12 08:23:11;;;;;;;1999.90;999.90;;;18.10;99.90;;;;;;5030165;28;20029;-70
2023/04/12 08:25:39;;;;;;;1999.90;999.90;;;18.00;99.90;;;;;;5034646;28;20048;-69
2023/04/12 08:28:07;;;;;;;1999.90;999.90;;;18.00;99.90;;;;;;5046210;28;20037;-71
2023/04/12 08:30:35;;;;;;;1999.90;999.90;;;18.00;99.90;;;;;;5033662;28;20033;-73
2023/04/12 08:33:02;;;;;;;1999.90;999.90;;;18.00;99.90;;;;;;5032473;28;20033;-71
2023/04/12 08:35:30;;;;;;;1999.90;999.90;;;17.90;99.90;;;;;;5039970;28;20036;-73
2023/04/12 08:37:59;;;;;;;1999.90;999.90;;;17.90;99.90;;;;;;5042488;28;20026;-72
2023/04/12 08:40:26;;;;;;;1999.90;999.90;;;17.80;99.90;;;;;;5034038;28;20037;-71
2023/04/12 08:42:54;;;;;;;1999.90;999.90;;;17.70;99.90;;;;;;5036802;28;20083;-73
2023/04/12 08:45:25;;;;;;;1999.90;999.90;;;17.60;99.90;;;;;;5043204;28;20072;-73
2023/04/12 08:47:52;;;;;;;1999.90;999.90;;;17.60;99.90;;;;;;5035801;28;20033;-71
2023/04/12 08:50:21;;;;;;;1999.90;999.90;;;17.50;99.90;;;;;;5036009;28;20041;-70
2023/04/12 08:52:49;;;;;;;1999.90;999.90;;;17.40;99.90;;;;;;5040516;28;20109;-70
2023/04/12 08:55:17;;;;;;;1999.90;999.90;;;17.30;99.90;;;;;;5042708;28;20033;-70
2023/04/12 08:57:45;;;;;;;1999.90;999.90;;;17.30;99.90;;;;;;5035190;28;20029;-72
2023/04/12 09:00:13;;;;;;;1999.90;999.90;;;17.20;99.90;;;;;;5034622;28;20384;-70
2023/04/12 09:02:45;;;;;;;1999.90;999.90;;;17.20;99.90;;;;;;5031224;28;20075;-70
2023/04/12 09:05:13;;;;;;;1999.90;999.90;;;17.20;99.90;;;;;;5033619;28;20445;-71
2023/04/12 09:07:42;;;;;;;1999.90;999.90;;;17.30;99.90;;;;;;5036174;28;20037;-70
2023/04/12 09:10:09;;;;;;;1999.90;999.90;;;17.40;99.90;;;;;;5045826;28;20052;-69
2023/04/12 09:12:46;;;;;;;1999.90;999.90;;;17.60;99.90;;;;;;5046891;28;20561;-70
2023/04/12 09:15:16;;;;;;;1999.90;999.90;;;17.60;99.90;;;;;;5035942;28;20614;-70
2023/04/12 09:17:44;;;;;;;1999.90;999.90;;;17.60;99.90;;;;;;5040756;28;20040;-71
2023/04/12 09:20:17;;;;;;;1999.90;999.90;;;17.60;99.90;;;;;;5041192;28;20028;-70
2023/04/12 09:22:46;;;;;;;1999.90;999.90;;;17.60;99.90;;;;;;5046847;28;20122;-70
2023/04/12 09:25:14;;;;;;;1999.90;999.90;;;17.60;99.90;;;;;;5035618;28;20030;-70
2023/04/12 09:27:57;;;;;;;1999.90;999.90;;;17.50;99.90;;;;;;5044829;28;20030;-71
2023/04/12 09:30:24;;;;;;;1999.90;999.90;;;17.40;99.90;;;;;;5035105;28;20530;-70
2023/04/12 09:32:53;;;;;;;1999.90;999.90;;;17.40;99.90;;;;;;5046095;28;20024;-70
2023/04/12 09:35:34;;;;;;;1999.90;999.90;;;17.30;99.90;;;;;;5047745;28;20028;-70
2023/04/12 09:38:09;;;;;;;1999.90;999.90;;;17.20;99.90;;;;;;5031498;28;20116;-70
2023/04/12 09:40:37;;;;;;;1999.90;999.90;;;17.20;99.90;;;;;;5048716;28;20032;-72
2023/04/12 09:43:05;;;;;;;1999.90;999.90;;;17.20;99.90;;;;;;5040962;28;20090;-71
2023/04/12 09:45:39;;;;;;;1999.90;999.90;;;17.20;99.90;;;;;;5040964;28;20036;-71
2023/04/12 09:48:16;;;;;;;1999.90;999.90;;;17.30;99.90;;;;;;5033997;28;20388;-71
2023/04/12 09:50:45;;;;;;;1999.90;999.90;;;17.40;99.90;;;;;;5030500;28;20571;-70
2023/04/12 09:53:18;;;;;;;1999.90;999.90;;;17.40;99.90;;;;;;5038356;28;20035;-71
2023/04/12 09:55:48;;;;;;;1999.90;999.90;;;17.50;99.90;;;;;;5045419;28;20033;-70
2023/04/12 09:58:20;;;;;;;1999.90;999.90;;;17.60;99.90;;;;;;5044498;28;20035;-71
2023/04/12 10:00:49;;;;;;;1999.90;999.90;;;17.60;99.90;;;;;;5043142;28;20480;-71
2023/04/12 10:03:17;;;;;;;1999.90;999.90;;;17.60;99.90;;;;;;5040364;28;20056;-70
2023/04/12 10:05:45;;;;;;;1999.90;999.90;;;17.50;99.90;;;;;;5035419;28;20186;-71
2023/04/12 10:08:14;;;;;;;1999.90;999.90;;;17.50;99.90;;;;;;5032044;28;20106;-71
2023/04/12 10:10:45;;;;;;;1999.90;999.90;;;17.40;99.90;;;;;;5045723;28;20048;-71
2023/04/12 10:13:13;;;;;;;1999.90;999.90;;;17.40;99.90;;;;;;5032806;28;20039;-72
2023/04/12 10:15:40;;;;;;;1999.90;999.90;;;17.30;99.90;;;;;;5039034;28;20067;-71
2023/04/12 10:18:10;;;;;;;1999.90;999.90;;;17.30;99.90;;;;;;5038782;28;20044;-70
2023/04/12 10:20:42;;;;;;;1999.90;999.90;;;17.30;99.90;;;;;;5035770;28;20055;-73
2023/04/12 10:23:11;;;;;;;1999.90;999.90;;;17.20;99.90;;;;;;5031107;28;20472;-72
2023/04/12 10:25:41;;;;;;;1999.90;999.90;;;17.30;99.90;;;;;;5032792;28;20037;-72
2023/04/12 10:28:22;;;;;;;1999.90;999.90;;;17.30;99.90;;;;;;5039622;28;20051;-70
2023/04/12 10:30:53;;;;;;;1999.90;999.90;;;17.30;99.90;;;;;;5036618;28;20083;-72
2023/04/12 10:33:26;;;;;;;1999.90;999.90;;;17.30;99.90;;;;;;5039725;28;20028;-70
2023/04/12 10:36:07;;;;;;;1999.90;999.90;;;17.30;99.90;;;;;;5034408;28;20033;-69
2023/04/12 10:38:46;;;;;;;1999.90;999.90;;;17.20;99.90;;;;;;5034277;28;21943;-72
2023/04/12 10:41:18;;;;;;;1999.90;999.90;;;17.20;99.90;;;;;;5034554;28;20049;-72
2023/04/12 10:43:47;;;;;;;1999.90;999.90;;;17.20;99.90;;;;;;5041355;28;20095;-72
2023/04/12 10:46:45;;;;;;;1999.90;999.90;;;17.20;99.90;;;;;;5034203;28;20128;-72
2023/04/12 10:49:14;;;;;;;1999.90;999.90;;;17.10;99.90;;;;;;5034106;28;20130;-72
2023/04/12 10:52:11;;;;;;;1999.90;999.90;;;17.20;99.90;;;;;;5044722;28;20028;-72
2023/04/12 10:54:38;;;;;;;1999.90;999.90;;;17.20;99.90;;;;;;5033965;28;20078;-71
2023/04/12 10:57:27;;;;;;;1999.90;999.90;;;17.20;99.90;;;;;;5028152;28;20051;-72
2023/04/12 10:59:59;;;;;;;1999.90;999.90;;;17.20;99.90;;;;;;5031630;28;20083;-71
2023/04/12 11:02:27;;;;;;;1999.90;999.90;;;17.20;99.90;;;;;;5032849;28;20053;-71
2023/04/12 11:05:23;;;;;;;1999.90;999.90;;;17.20;99.90;;;;;;5033512;28;20033;-71
2023/04/12 11:07:53;;;;;;;1999.90;999.90;;;17.20;99.90;;;;;;5030209;28;20440;-71
2023/04/12 11:10:21;;;;;;;1999.90;999.90;;;17.10;99.90;;;;;;5039995;28;20037;-71
2023/04/12 11:12:56;;;;;;;1999.90;999.90;;;17.10;99.90;;;;;;5037438;28;20094;-71
2023/04/12 11:15:27;;;;;;;1999.90;999.90;;;17.10;99.90;;;;;;5033794;28;20529;-70
2023/04/12 11:17:56;;;;;;;1999.90;999.90;;;17.00;99.90;;;;;;5039568;28;20033;-70
2023/04/12 11:20:25;;;;;;;1999.90;999.90;;;17.10;99.90;;;;;;5028148;28;20034;-71
2023/04/12 11:22:54;;;;;;;1999.90;999.90;;;17.00;99.90;;;;;;5034137;28;20045;-71
2023/04/12 11:25:21;;;;;;;1999.90;999.90;;;17.10;99.90;;;;;;5027731;28;20025;-70
2023/04/12 11:27:53;;;;;;;1999.90;999.90;;;17.20;99.90;;;;;;5034273;28;20148;-70
2023/04/12 11:30:22;;;;;;;1999.90;999.90;;;17.20;99.90;;;;;;5030277;28;20383;-70
2023/04/12 11:32:49;;;;;;;1999.90;999.90;;;17.20;99.90;;;;;;5038598;28;20391;-71
2023/04/12 11:35:21;;;;;;;1999.90;999.90;;;17.20;99.90;;;;;;5045058;28;20064;-67
2023/04/12 11:37:48;;;;;;;1999.90;999.90;;;17.20;99.90;;;;;;5032762;28;20024;-70
2023/04/12 11:40:16;;;;;;;1999.90;999.90;;;17.10;99.90;;;;;;5042781;28;20083;-71
2023/04/12 11:42:44;;;;;;;1999.90;999.90;;;17.10;99.90;;;;;;5045555;28;20033;-69
2023/04/12 11:45:11;;;;;;;1999.90;999.90;;;17.10;99.90;;;;;;5034610;28;20025;-71
2023/04/12 11:47:43;;;;;;;1999.90;999.90;;;17.10;99.90;;;;;;5045760;28;20084;-69
2023/04/12 11:50:10;;;;;;;1999.90;999.90;;;17.10;99.90;;;;;;5035185;28;20053;-68
2023/04/12 11:52:39;;;;;;;1999.90;999.90;;;17.10;99.90;;;;;;5033894;28;20387;-69
2023/04/12 11:55:09;;;;;;;1999.90;999.90;;;17.00;99.90;;;;;;5037816;28;20476;-69
2023/04/12 11:57:38;;;;;;;1999.90;999.90;;;17.00;99.90;;;;;;5034299;28;20048;-69
2023/04/12 12:00:06;;;;;;;1999.90;999.90;;;17.00;99.90;;;;;;5038804;28;20083;-70
2023/04/12 12:02:34;;;;;;;1999.90;999.90;;;17.00;99.90;;;;;;5037327;28;20043;-70
2023/04/12 12:05:02;;;;;;;1999.90;999.90;;;17.00;99.90;;;;;;5034429;28;20113;-70
2023/04/12 12:07:29;;;;;;;1999.90;999.90;;;17.00;99.90;;;;;;5038799;28;20045;-71
2023/04/12 12:09:57;;;;;;;1999.90;999.90;;;17.00;99.90;;;;;;5040800;28;20435;-71
2023/04/12 12:12:25;;;;;;;1999.90;999.90;;;17.00;99.90;;;;;;5045517;28;20121;-70